sensor_id;sensor_type;location;lat;lon;timestamp;temperature;humidity
22966;DHT22;11649;48.090;9.754;2023-11-19T00:00:09;5.70;99.90
22966;DHT22;11649;48.090;9.754;2023-11-19T00:02:40;5.80;99.90
22966;DHT22;11649;48.090;9.754;2023-11-19T00:05:08;5.70;99.90
22966;DHT22;11649;48.090;9.754;2023-11-19T00:07:36;5.80;99.90
22966;DHT22;11649;48.090;9.754;2023-11-19T00:10:03;5.80;99.90
22966;DHT22;11649;48.090;9.754;2023-11-19T00:12:34;5.80;99.90
22966;DHT22;11649;48.090;9.754;2023-11-19T00:15:00;5.80;99.90
22966;DHT22;11649;48.090;9.754;2023-11-19T00:17:28;5.80;99.90
22966;DHT22;11649;48.090;9.754;2023-11-19T00:19:55;5.80;99.90
22966;DHT22;11649;48.090;9.754;2023-11-19T00:22:22;5.80;99.90
22966;DHT22;11649;48.090;9.754;2023-11-19T00:24:49;5.90;99.90
22966;DHT22;11649;48.090;9.754;2023-11-19T00:27:16;5.90;99.90
22966;DHT22;11649;48.090;9.754;2023-11-19T00:29:44;5.90;99.90
22966;DHT22;11649;48.090;9.754;2023-11-19T00:32:13;5.90;99.90
22966;DHT22;11649;48.090;9.754;2023-11-19T00:34:39;6.00;99.90
22966;DHT22;11649;48.090;9.754;2023-11-19T00:37:06;6.00;99.90
22966;DHT22;11649;48.090;9.754;2023-11-19T00:39:33;5.90;99.90
22966;DHT22;11649;48.090;9.754;2023-11-19T00:42:00;6.00;99.90
22966;DHT22;11649;48.090;9.754;2023-11-19T00:44:27;6.10;99.90
22966;DHT22;11649;48.090;9.754;2023-11-19T00:46:54;6.10;99.90
22966;DHT22;11649;48.090;9.754;2023-11-19T00:49:20;6.10;99.90
22966;DHT22;11649;48.090;9.754;2023-11-19T00:51:47;6.10;99.90
22966;DHT22;11649;48.090;9.754;2023-11-19T00:54:14;6.10;99.90
22966;DHT22;11649;48.090;9.754;2023-11-19T00:56:41;6.20;99.90
22966;DHT22;11649;48.090;9.754;2023-11-19T00:59:08;6.20;99.90
22966;DHT22;11649;48.090;9.754;2023-11-19T01:01:34;6.10;99.90
22966;DHT22;11649;48.090;9.754;2023-11-19T01:04:01;6.20;99.90
22966;DHT22;11649;48.090;9.754;2023-11-19T01:06:29;6.20;99.90
22966;DHT22;11649;48.090;9.754;2023-11-19T01:08:56;6.20;99.90
22966;DHT22;11649;48.090;9.754;2023-11-19T01:11:24;6.20;99.90
22966;DHT22;11649;48.090;9.754;2023-11-19T01:13:51;6.20;99.90
22966;DHT22;11649;48.090;9.754;2023-11-19T01:16:19;6.20;99.90
22966;DHT22;11649;48.090;9.754;2023-11-19T01:18:49;6.20;99.90
22966;DHT22;11649;48.090;9.754;2023-11-19T01:21:16;6.20;99.90
22966;DHT22;11649;48.090;9.754;2023-11-19T01:23:43;6.20;99.90
22966;DHT22;11649;48.090;9.754;2023-11-19T01:26:11;6.20;99.90
22966;DHT22;11649;48.090;9.754;2023-11-19T01:28:39;6.20;99.90
22966;DHT22;11649;48.090;9.754;2023-11-19T01:31:17;6.20;99.90
22966;DHT22;11649;48.090;9.754;2023-11-19T01:33:44;6.20;99.90
22966;DHT22;11649;48.090;9.754;2023-11-19T01:36:15;6.20;99.90
22966;DHT22;11649;48.090;9.754;2023-11-19T01:38:42;6.20;99.90
22966;DHT22;11649;48.090;9.754;2023-11-19T01:41:09;6.30;99.90
22966;DHT22;11649;48.090;9.754;2023-11-19T01:43:37;6.30;99.90
22966;DHT22;11649;48.090;9.754;2023-11-19T01:46:05;6.30;99.90
22966;DHT22;11649;48.090;9.754;2023-11-19T01:48:34;6.40;99.90
22966;DHT22;11649;48.090;9.754;2023-11-19T01:51:03;6.40;99.90
22966;DHT22;11649;48.090;9.754;2023-11-19T01:53:31;6.40;99.90
22966;DHT22;11649;48.090;9.754;2023-11-19T01:55:58;6.40;99.90
22966;DHT22;11649;48.090;9.754;2023-11-19T01:58:26;6.40;99.90
22966;DHT22;11649;48.090;9.754;2023-11-19T02:00:53;6.50;99.90
22966;DHT22;11649;48.090;9.754;2023-11-19T02:03:21;6.50;99.90
22966;DHT22;11649;48.090;9.754;2023-11-19T02:05:48;6.50;99.90
22966;DHT22;11649;48.090;9.754;2023-11-19T02:08:16;6.50;99.90
22966;DHT22;11649;48.090;9.754;2023-11-19T02:10:43;6.50;99.90
22966;DHT22;11649;48.090;9.754;2023-11-19T02:13:10;6.50;99.90
22966;DHT22;11649;48.090;9.754;2023-11-19T02:15:37;6.50;99.90
22966;DHT22;11649;48.090;9.754;2023-11-19T02:18:26;6.60;99.90
22966;DHT22;11649;48.090;9.754;2023-11-19T02:20:57;6.60;99.90
22966;DHT22;11649;48.090;9.754;2023-11-19T02:23:26;6.50;99.90
22966;DHT22;11649;48.090;9.754;2023-11-19T02:28:33;6.50;99.90
22966;DHT22;11649;48.090;9.754;2023-11-19T02:31:00;6.60;99.90
22966;DHT22;11649;48.090;9.754;2023-11-19T02:33:27;6.50;99.90
22966;DHT22;11649;48.090;9.754;2023-11-19T02:35:54;6.50;99.90
22966;DHT22;11649;48.090;9.754;2023-11-19T02:38:21;6.50;99.90
22966;DHT22;11649;48.090;9.754;2023-11-19T02:40:48;6.60;99.90
22966;DHT22;11649;48.090;9.754;2023-11-19T02:43:15;6.60;99.90
22966;DHT22;11649;48.090;9.754;2023-11-19T02:45:43;6.60;99.90
22966;DHT22;11649;48.090;9.754;2023-11-19T02:48:12;6.60;99.90
22966;DHT22;11649;48.090;9.754;2023-11-19T02:50:42;6.60;99.90
22966;DHT22;11649;48.090;9.754;2023-11-19T02:53:08;6.60;99.90
22966;DHT22;11649;48.090;9.754;2023-11-19T02:55:35;6.60;99.90
22966;DHT22;11649;48.090;9.754;2023-11-19T02:58:04;6.60;99.90
22966;DHT22;11649;48.090;9.754;2023-11-19T03:00:47;6.60;99.90
22966;DHT22;11649;48.090;9.754;2023-11-19T03:03:27;6.70;99.90
22966;DHT22;11649;48.090;9.754;2023-11-19T03:06:05;6.60;99.90
22966;DHT22;11649;48.090;9.754;2023-11-19T03:08:34;6.60;99.90
22966;DHT22;11649;48.090;9.754;2023-11-19T03:11:02;6.60;99.90
22966;DHT22;11649;48.090;9.754;2023-11-19T03:13:28;6.60;99.90
22966;DHT22;11649;48.090;9.754;2023-11-19T03:19:43;6.70;99.90
22966;DHT22;11649;48.090;9.754;2023-11-19T03:22:11;6.70;99.90
22966;DHT22;11649;48.090;9.754;2023-11-19T03:24:38;6.70;99.90
22966;DHT22;11649;48.090;9.754;2023-11-19T03:27:04;6.70;99.90
22966;DHT22;11649;48.090;9.754;2023-11-19T03:29:31;6.70;99.90
22966;DHT22;11649;48.090;9.754;2023-11-19T03:31:58;6.80;99.90
22966;DHT22;11649;48.090;9.754;2023-11-19T03:34:25;6.70;99.90
22966;DHT22;11649;48.090;9.754;2023-11-19T03:36:52;6.70;99.90
22966;DHT22;11649;48.090;9.754;2023-11-19T03:39:19;6.70;99.90
22966;DHT22;11649;48.090;9.754;2023-11-19T03:41:46;6.80;99.90
22966;DHT22;11649;48.090;9.754;2023-11-19T03:44:16;6.70;99.90
22966;DHT22;11649;48.090;9.754;2023-11-19T03:46:43;6.80;99.90
22966;DHT22;11649;48.090;9.754;2023-11-19T03:49:11;6.80;99.90
22966;DHT22;11649;48.090;9.754;2023-11-19T03:51:38;6.90;99.90
22966;DHT22;11649;48.090;9.754;2023-11-19T03:54:06;6.80;99.90
22966;DHT22;11649;48.090;9.754;2023-11-19T03:56:33;6.90;99.90
22966;DHT22;11649;48.090;9.754;2023-11-19T03:59:02;7.30;99.90
22966;DHT22;11649;48.090;9.754;2023-11-19T04:01:52;6.90;99.90
22966;DHT22;11649;48.090;9.754;2023-11-19T04:08:36;6.90;99.90
22966;DHT22;11649;48.090;9.754;2023-11-19T04:14:45;7.00;99.90
22966;DHT22;11649;48.090;9.754;2023-11-19T04:17:27;7.10;99.90
22966;DHT22;11649;48.090;9.754;2023-11-19T04:19:55;7.40;99.90
22966;DHT22;11649;48.090;9.754;2023-11-19T04:22:22;7.00;99.90
22966;DHT22;11649;48.090;9.754;2023-11-19T04:24:49;7.80;99.90
22966;DHT22;11649;48.090;9.754;2023-11-19T04:27:16;7.20;99.90
22966;DHT22;11649;48.090;9.754;2023-11-19T04:29:43;7.10;99.90
22966;DHT22;11649;48.090;9.754;2023-11-19T04:32:10;7.90;99.90
22966;DHT22;11649;48.090;9.754;2023-11-19T04:34:37;7.70;99.90
22966;DHT22;11649;48.090;9.754;2023-11-19T04:37:04;7.30;99.90
22966;DHT22;11649;48.090;9.754;2023-11-19T04:39:34;7.20;99.90
22966;DHT22;11649;48.090;9.754;2023-11-19T04:42:01;7.20;99.90
22966;DHT22;11649;48.090;9.754;2023-11-19T04:44:27;7.30;99.90
22966;DHT22;11649;48.090;9.754;2023-11-19T04:46:56;7.40;99.90
22966;DHT22;11649;48.090;9.754;2023-11-19T04:49:24;7.30;99.90
22966;DHT22;11649;48.090;9.754;2023-11-19T04:51:54;7.30;99.90
22966;DHT22;11649;48.090;9.754;2023-11-19T04:54:21;7.40;99.90
22966;DHT22;11649;48.090;9.754;2023-11-19T04:56:48;7.40;99.90
22966;DHT22;11649;48.090;9.754;2023-11-19T04:59:18;7.40;99.90
22966;DHT22;11649;48.090;9.754;2023-11-19T05:01:48;7.40;99.90
22966;DHT22;11649;48.090;9.754;2023-11-19T05:04:16;7.50;99.90
22966;DHT22;11649;48.090;9.754;2023-11-19T05:06:47;7.50;99.90
22966;DHT22;11649;48.090;9.754;2023-11-19T05:09:14;7.70;99.90
22966;DHT22;11649;48.090;9.754;2023-11-19T05:15:25;7.60;99.90
22966;DHT22;11649;48.090;9.754;2023-11-19T05:17:52;7.60;99.90
22966;DHT22;11649;48.090;9.754;2023-11-19T05:20:46;7.60;99.90
22966;DHT22;11649;48.090;9.754;2023-11-19T05:27:38;7.50;99.90
22966;DHT22;11649;48.090;9.754;2023-11-19T05:30:06;7.70;99.90
22966;DHT22;11649;48.090;9.754;2023-11-19T05:32:37;7.50;99.90
22966;DHT22;11649;48.090;9.754;2023-11-19T05:35:05;7.60;99.90
22966;DHT22;11649;48.090;9.754;2023-11-19T05:37:32;7.50;99.90
22966;DHT22;11649;48.090;9.754;2023-11-19T05:39:59;7.60;99.90
22966;DHT22;11649;48.090;9.754;2023-11-19T05:42:26;7.60;99.90
22966;DHT22;11649;48.090;9.754;2023-11-19T05:44:54;7.60;99.90
22966;DHT22;11649;48.090;9.754;2023-11-19T05:47:20;7.60;99.90
22966;DHT22;11649;48.090;9.754;2023-11-19T05:49:47;7.60;99.90
22966;DHT22;11649;48.090;9.754;2023-11-19T05:52:15;7.70;99.90
22966;DHT22;11649;48.090;9.754;2023-11-19T05:54:43;7.70;99.90
22966;DHT22;11649;48.090;9.754;2023-11-19T05:57:09;7.80;99.90
22966;DHT22;11649;48.090;9.754;2023-11-19T05:59:36;7.90;99.90
22966;DHT22;11649;48.090;9.754;2023-11-19T06:02:03;7.80;99.90
22966;DHT22;11649;48.090;9.754;2023-11-19T06:04:30;7.80;99.90
22966;DHT22;11649;48.090;9.754;2023-11-19T06:06:57;7.80;99.90
22966;DHT22;11649;48.090;9.754;2023-11-19T06:09:24;7.90;99.90
22966;DHT22;11649;48.090;9.754;2023-11-19T06:11:51;7.90;99.90
22966;DHT22;11649;48.090;9.754;2023-11-19T06:14:19;8.00;99.90
22966;DHT22;11649;48.090;9.754;2023-11-19T06:16:45;8.00;99.90
22966;DHT22;11649;48.090;9.754;2023-11-19T06:19:12;7.90;99.90
22966;DHT22;11649;48.090;9.754;2023-11-19T06:21:39;7.90;99.90
22966;DHT22;11649;48.090;9.754;2023-11-19T06:24:06;7.90;99.90
22966;DHT22;11649;48.090;9.754;2023-11-19T06:26:33;8.00;99.90
22966;DHT22;11649;48.090;9.754;2023-11-19T06:29:00;8.00;99.90
22966;DHT22;11649;48.090;9.754;2023-11-19T06:31:27;8.10;99.90
22966;DHT22;11649;48.090;9.754;2023-11-19T06:33:54;8.00;99.90
22966;DHT22;11649;48.090;9.754;2023-11-19T06:36:20;8.00;99.90
22966;DHT22;11649;48.090;9.754;2023-11-19T06:38:48;8.00;99.90
22966;DHT22;11649;48.090;9.754;2023-11-19T06:41:15;8.00;99.90
22966;DHT22;11649;48.090;9.754;2023-11-19T06:43:42;8.00;99.90
22966;DHT22;11649;48.090;9.754;2023-11-19T06:46:16;8.00;99.90
22966;DHT22;11649;48.090;9.754;2023-11-19T06:48:44;8.00;99.90
22966;DHT22;11649;48.090;9.754;2023-11-19T06:51:12;8.00;99.90
22966;DHT22;11649;48.090;9.754;2023-11-19T06:53:39;8.10;99.90
22966;DHT22;11649;48.090;9.754;2023-11-19T06:56:20;8.20;99.90
22966;DHT22;11649;48.090;9.754;2023-11-19T06:58:48;8.20;99.90
22966;DHT22;11649;48.090;9.754;2023-11-19T07:01:18;8.20;99.90
22966;DHT22;11649;48.090;9.754;2023-11-19T07:03:46;8.20;99.90
22966;DHT22;11649;48.090;9.754;2023-11-19T07:06:14;8.20;99.90
22966;DHT22;11649;48.090;9.754;2023-11-19T07:08:44;8.20;99.90
22966;DHT22;11649;48.090;9.754;2023-11-19T07:11:14;8.20;99.90
22966;DHT22;11649;48.090;9.754;2023-11-19T07:13:43;8.30;99.90
22966;DHT22;11649;48.090;9.754;2023-11-19T07:16:10;8.30;99.90
22966;DHT22;11649;48.090;9.754;2023-11-19T07:18:37;8.30;99.90
22966;DHT22;11649;48.090;9.754;2023-11-19T07:21:04;8.40;99.90
22966;DHT22;11649;48.090;9.754;2023-11-19T07:23:31;8.40;99.90
22966;DHT22;11649;48.090;9.754;2023-11-19T07:25:59;8.40;99.90
22966;DHT22;11649;48.090;9.754;2023-11-19T07:28:26;8.40;99.90
22966;DHT22;11649;48.090;9.754;2023-11-19T07:30:55;8.30;99.90
22966;DHT22;11649;48.090;9.754;2023-11-19T07:33:23;8.30;99.90
22966;DHT22;11649;48.090;9.754;2023-11-19T07:35:50;8.30;99.90
22966;DHT22;11649;48.090;9.754;2023-11-19T07:38:17;8.40;99.90
22966;DHT22;11649;48.090;9.754;2023-11-19T07:40:44;8.40;99.90
22966;DHT22;11649;48.090;9.754;2023-11-19T07:43:22;8.40;99.90
22966;DHT22;11649;48.090;9.754;2023-11-19T07:45:49;8.40;99.90
22966;DHT22;11649;48.090;9.754;2023-11-19T07:48:16;8.50;99.90
22966;DHT22;11649;48.090;9.754;2023-11-19T07:50:44;8.50;99.90
22966;DHT22;11649;48.090;9.754;2023-11-19T07:53:11;8.40;99.90
22966;DHT22;11649;48.090;9.754;2023-11-19T07:55:39;8.40;99.90
22966;DHT22;11649;48.090;9.754;2023-11-19T07:58:09;8.50;99.90
22966;DHT22;11649;48.090;9.754;2023-11-19T08:00:36;8.60;99.90
22966;DHT22;11649;48.090;9.754;2023-11-19T08:03:04;8.60;99.90
22966;DHT22;11649;48.090;9.754;2023-11-19T08:05:31;8.70;99.90
22966;DHT22;11649;48.090;9.754;2023-11-19T08:07:58;8.60;99.90
22966;DHT22;11649;48.090;9.754;2023-11-19T08:10:25;8.60;99.90
22966;DHT22;11649;48.090;9.754;2023-11-19T08:12:59;8.70;99.90
22966;DHT22;11649;48.090;9.754;2023-11-19T08:15:29;8.80;99.90
22966;DHT22;11649;48.090;9.754;2023-11-19T08:17:58;9.00;99.90
22966;DHT22;11649;48.090;9.754;2023-11-19T08:20:28;8.90;99.90
22966;DHT22;11649;48.090;9.754;2023-11-19T08:22:55;8.90;99.90
22966;DHT22;11649;48.090;9.754;2023-11-19T08:25:22;8.90;99.90
22966;DHT22;11649;48.090;9.754;2023-11-19T08:27:49;8.90;99.90
22966;DHT22;11649;48.090;9.754;2023-11-19T08:30:16;8.90;99.90
22966;DHT22;11649;48.090;9.754;2023-11-19T08:32:43;9.00;99.90
22966;DHT22;11649;48.090;9.754;2023-11-19T08:35:10;9.00;99.90
22966;DHT22;11649;48.090;9.754;2023-11-19T08:37:37;9.20;99.90
22966;DHT22;11649;48.090;9.754;2023-11-19T08:40:05;9.30;99.90
22966;DHT22;11649;48.090;9.754;2023-11-19T08:42:34;9.30;99.90
22966;DHT22;11649;48.090;9.754;2023-11-19T08:45:00;9.40;99.90
22966;DHT22;11649;48.090;9.754;2023-11-19T08:47:27;9.50;99.90
22966;DHT22;11649;48.090;9.754;2023-11-19T08:49:54;9.30;99.90
22966;DHT22;11649;48.090;9.754;2023-11-19T08:52:24;9.50;99.90
22966;DHT22;11649;48.090;9.754;2023-11-19T08:54:51;9.80;99.90
22966;DHT22;11649;48.090;9.754;2023-11-19T08:57:19;9.80;99.90
22966;DHT22;11649;48.090;9.754;2023-11-19T08:59:46;9.80;99.90
22966;DHT22;11649;48.090;9.754;2023-11-19T09:02:13;9.80;99.90
22966;DHT22;11649;48.090;9.754;2023-11-19T09:04:40;9.90;99.90
22966;DHT22;11649;48.090;9.754;2023-11-19T09:07:08;10.40;99.90
22966;DHT22;11649;48.090;9.754;2023-11-19T09:09:36;9.90;99.90
22966;DHT22;11649;48.090;9.754;2023-11-19T09:12:03;10.00;99.90
22966;DHT22;11649;48.090;9.754;2023-11-19T09:14:30;10.00;99.90
22966;DHT22;11649;48.090;9.754;2023-11-19T09:16:57;10.10;99.90
22966;DHT22;11649;48.090;9.754;2023-11-19T09:19:25;10.10;99.90
22966;DHT22;11649;48.090;9.754;2023-11-19T09:21:53;10.10;99.90
22966;DHT22;11649;48.090;9.754;2023-11-19T09:24:20;10.20;99.90
22966;DHT22;11649;48.090;9.754;2023-11-19T09:26:47;10.20;99.90
22966;DHT22;11649;48.090;9.754;2023-11-19T09:29:13;10.20;99.90
22966;DHT22;11649;48.090;9.754;2023-11-19T09:31:41;10.20;99.90
22966;DHT22;11649;48.090;9.754;2023-11-19T09:34:08;10.20;99.90
22966;DHT22;11649;48.090;9.754;2023-11-19T09:36:35;10.20;99.90
22966;DHT22;11649;48.090;9.754;2023-11-19T09:39:01;10.30;99.90
22966;DHT22;11649;48.090;9.754;2023-11-19T09:41:30;10.30;99.90
22966;DHT22;11649;48.090;9.754;2023-11-19T09:43:57;10.30;99.90
22966;DHT22;11649;48.090;9.754;2023-11-19T09:46:25;10.40;99.90
22966;DHT22;11649;48.090;9.754;2023-11-19T09:48:53;10.60;99.90
22966;DHT22;11649;48.090;9.754;2023-11-19T09:51:23;10.70;99.90
22966;DHT22;11649;48.090;9.754;2023-11-19T09:53:50;10.50;99.90
22966;DHT22;11649;48.090;9.754;2023-11-19T09:56:18;10.40;99.90
22966;DHT22;11649;48.090;9.754;2023-11-19T09:58:46;10.40;99.90
22966;DHT22;11649;48.090;9.754;2023-11-19T10:01:14;10.40;99.90
22966;DHT22;11649;48.090;9.754;2023-11-19T10:03:46;10.50;99.90
22966;DHT22;11649;48.090;9.754;2023-11-19T10:06:14;10.40;99.90
22966;DHT22;11649;48.090;9.754;2023-11-19T10:08:42;10.50;99.90
22966;DHT22;11649;48.090;9.754;2023-11-19T10:11:10;10.60;99.90
22966;DHT22;11649;48.090;9.754;2023-11-19T10:13:40;10.50;99.90
22966;DHT22;11649;48.090;9.754;2023-11-19T10:16:13;10.60;99.90
22966;DHT22;11649;48.090;9.754;2023-11-19T10:18:48;10.60;99.90
22966;DHT22;11649;48.090;9.754;2023-11-19T10:21:19;10.80;99.90
22966;DHT22;11649;48.090;9.754;2023-11-19T10:23:54;10.70;99.90
22966;DHT22;11649;48.090;9.754;2023-11-19T10:26:21;10.80;99.90
22966;DHT22;11649;48.090;9.754;2023-11-19T10:28:49;10.70;99.90
22966;DHT22;11649;48.090;9.754;2023-11-19T10:31:17;10.70;99.90
22966;DHT22;11649;48.090;9.754;2023-11-19T10:33:45;10.90;99.90
22966;DHT22;11649;48.090;9.754;2023-11-19T10:36:13;11.00;99.90
22966;DHT22;11649;48.090;9.754;2023-11-19T10:38:40;11.10;99.90
22966;DHT22;11649;48.090;9.754;2023-11-19T10:41:07;11.30;99.90
22966;DHT22;11649;48.090;9.754;2023-11-19T10:43:44;11.50;99.90
22966;DHT22;11649;48.090;9.754;2023-11-19T10:46:14;11.70;99.90
22966;DHT22;11649;48.090;9.754;2023-11-19T10:48:41;11.90;99.90
22966;DHT22;11649;48.090;9.754;2023-11-19T10:51:08;11.90;99.90
22966;DHT22;11649;48.090;9.754;2023-11-19T10:53:37;11.90;99.90
22966;DHT22;11649;48.090;9.754;2023-11-19T10:56:11;12.00;99.90
22966;DHT22;11649;48.090;9.754;2023-11-19T10:58:44;12.20;99.90
22966;DHT22;11649;48.090;9.754;2023-11-19T11:01:19;12.40;99.90
22966;DHT22;11649;48.090;9.754;2023-11-19T11:03:51;12.50;99.90
22966;DHT22;11649;48.090;9.754;2023-11-19T11:06:21;12.50;99.90
22966;DHT22;11649;48.090;9.754;2023-11-19T11:08:49;12.60;99.90
22966;DHT22;11649;48.090;9.754;2023-11-19T11:11:16;12.70;99.90
22966;DHT22;11649;48.090;9.754;2023-11-19T11:13:44;12.70;99.90
22966;DHT22;11649;48.090;9.754;2023-11-19T11:16:12;12.70;99.90
22966;DHT22;11649;48.090;9.754;2023-11-19T11:18:40;12.50;99.90
22966;DHT22;11649;48.090;9.754;2023-11-19T11:21:13;12.30;99.90
22966;DHT22;11649;48.090;9.754;2023-11-19T11:24:01;12.20;99.90
22966;DHT22;11649;48.090;9.754;2023-11-19T11:32:28;12.40;99.90
22966;DHT22;11649;48.090;9.754;2023-11-19T11:37:53;12.50;99.90
22966;DHT22;11649;48.090;9.754;2023-11-19T11:40:22;12.30;99.90
22966;DHT22;11649;48.090;9.754;2023-11-19T11:42:50;12.20;99.90
22966;DHT22;11649;48.090;9.754;2023-11-19T11:45:35;12.20;99.90
22966;DHT22;11649;48.090;9.754;2023-11-19T11:48:15;12.20;99.90
22966;DHT22;11649;48.090;9.754;2023-11-19T11:50:56;12.30;99.90
22966;DHT22;11649;48.090;9.754;2023-11-19T11:53:25;12.20;99.90
22966;DHT22;11649;48.090;9.754;2023-11-19T11:55:54;12.20;99.90
22966;DHT22;11649;48.090;9.754;2023-11-19T11:58:28;12.20;99.90
22966;DHT22;11649;48.090;9.754;2023-11-19T12:00:58;12.00;99.90
22966;DHT22;11649;48.090;9.754;2023-11-19T12:03:28;12.10;99.90
22966;DHT22;11649;48.090;9.754;2023-11-19T12:05:55;12.20;99.90
22966;DHT22;11649;48.090;9.754;2023-11-19T12:08:26;12.40;99.90
22966;DHT22;11649;48.090;9.754;2023-11-19T12:10:55;12.60;99.90
22966;DHT22;11649;48.090;9.754;2023-11-19T12:13:42;12.80;99.90
22966;DHT22;11649;48.090;9.754;2023-11-19T12:16:09;12.80;99.90
22966;DHT22;11649;48.090;9.754;2023-11-19T12:18:39;12.80;99.90
22966;DHT22;11649;48.090;9.754;2023-11-19T12:21:07;13.00;99.90
22966;DHT22;11649;48.090;9.754;2023-11-19T12:23:44;13.00;99.90
22966;DHT22;11649;48.090;9.754;2023-11-19T12:26:31;13.10;99.90
22966;DHT22;11649;48.090;9.754;2023-11-19T12:28:59;13.30;99.90
22966;DHT22;11649;48.090;9.754;2023-11-19T12:31:26;13.20;99.90
22966;DHT22;11649;48.090;9.754;2023-11-19T12:33:53;13.30;99.90
22966;DHT22;11649;48.090;9.754;2023-11-19T12:36:21;13.20;99.90
22966;DHT22;11649;48.090;9.754;2023-11-19T12:38:47;13.20;99.90
22966;DHT22;11649;48.090;9.754;2023-11-19T12:41:15;13.30;99.90
22966;DHT22;11649;48.090;9.754;2023-11-19T12:43:47;13.30;99.90
22966;DHT22;11649;48.090;9.754;2023-11-19T12:48:45;13.40;99.90
22966;DHT22;11649;48.090;9.754;2023-11-19T12:51:12;13.40;99.90
22966;DHT22;11649;48.090;9.754;2023-11-19T12:53:50;13.40;99.90
22966;DHT22;11649;48.090;9.754;2023-11-19T12:56:19;13.40;99.90
22966;DHT22;11649;48.090;9.754;2023-11-19T12:58:46;13.30;99.90
22966;DHT22;11649;48.090;9.754;2023-11-19T13:01:16;13.10;99.90
22966;DHT22;11649;48.090;9.754;2023-11-19T13:03:46;13.00;99.90
22966;DHT22;11649;48.090;9.754;2023-11-19T13:06:16;13.00;99.90
22966;DHT22;11649;48.090;9.754;2023-11-19T13:08:47;12.90;99.90
22966;DHT22;11649;48.090;9.754;2023-11-19T13:11:33;13.20;99.90
22966;DHT22;11649;48.090;9.754;2023-11-19T13:14:02;13.40;99.90
22966;DHT22;11649;48.090;9.754;2023-11-19T13:16:37;13.50;99.90
22966;DHT22;11649;48.090;9.754;2023-11-19T13:19:04;13.40;99.90
22966;DHT22;11649;48.090;9.754;2023-11-19T13:21:32;13.30;99.90
22966;DHT22;11649;48.090;9.754;2023-11-19T13:23:59;13.20;99.90
22966;DHT22;11649;48.090;9.754;2023-11-19T13:26:25;13.20;99.90
22966;DHT22;11649;48.090;9.754;2023-11-19T13:28:52;13.30;99.90
22966;DHT22;11649;48.090;9.754;2023-11-19T13:31:23;13.10;99.90
22966;DHT22;11649;48.090;9.754;2023-11-19T13:33:50;13.00;99.90
22966;DHT22;11649;48.090;9.754;2023-11-19T13:36:17;13.40;99.90
22966;DHT22;11649;48.090;9.754;2023-11-19T13:38:44;14.00;99.90
22966;DHT22;11649;48.090;9.754;2023-11-19T13:41:12;14.70;99.90
22966;DHT22;11649;48.090;9.754;2023-11-19T13:43:40;15.30;99.90
22966;DHT22;11649;48.090;9.754;2023-11-19T13:46:07;15.40;99.90
22966;DHT22;11649;48.090;9.754;2023-11-19T13:48:37;15.30;99.90
22966;DHT22;11649;48.090;9.754;2023-11-19T13:51:05;14.60;99.90
22966;DHT22;11649;48.090;9.754;2023-11-19T13:53:32;14.10;99.90
22966;DHT22;11649;48.090;9.754;2023-11-19T13:56:18;13.90;99.90
22966;DHT22;11649;48.090;9.754;2023-11-19T13:58:48;14.00;99.90
22966;DHT22;11649;48.090;9.754;2023-11-19T14:01:15;14.00;99.90
22966;DHT22;11649;48.090;9.754;2023-11-19T14:03:42;14.30;99.90
22966;DHT22;11649;48.090;9.754;2023-11-19T14:06:09;14.90;99.90
22966;DHT22;11649;48.090;9.754;2023-11-19T14:08:44;15.30;99.90
22966;DHT22;11649;48.090;9.754;2023-11-19T14:11:14;15.20;99.90
22966;DHT22;11649;48.090;9.754;2023-11-19T14:13:44;14.60;99.90
22966;DHT22;11649;48.090;9.754;2023-11-19T14:16:13;14.20;99.90
22966;DHT22;11649;48.090;9.754;2023-11-19T14:18:49;13.70;99.90
22966;DHT22;11649;48.090;9.754;2023-11-19T14:23:54;13.30;99.90
22966;DHT22;11649;48.090;9.754;2023-11-19T14:26:20;13.10;99.90
22966;DHT22;11649;48.090;9.754;2023-11-19T14:28:47;13.00;99.90
22966;DHT22;11649;48.090;9.754;2023-11-19T14:31:17;12.90;99.90
22966;DHT22;11649;48.090;9.754;2023-11-19T14:33:44;12.90;99.90
22966;DHT22;11649;48.090;9.754;2023-11-19T14:36:11;12.70;99.90
22966;DHT22;11649;48.090;9.754;2023-11-19T14:38:37;12.60;99.90
22966;DHT22;11649;48.090;9.754;2023-11-19T14:41:05;12.60;99.90
22966;DHT22;11649;48.090;9.754;2023-11-19T14:43:32;12.60;99.90
22966;DHT22;11649;48.090;9.754;2023-11-19T14:45:59;12.50;99.90
22966;DHT22;11649;48.090;9.754;2023-11-19T14:48:26;12.50;99.90
22966;DHT22;11649;48.090;9.754;2023-11-19T14:50:53;12.50;99.90
22966;DHT22;11649;48.090;9.754;2023-11-19T14:53:20;12.40;99.90
22966;DHT22;11649;48.090;9.754;2023-11-19T14:55:47;12.30;99.90
22966;DHT22;11649;48.090;9.754;2023-11-19T14:58:14;12.20;99.90
22966;DHT22;11649;48.090;9.754;2023-11-19T15:00:43;12.20;99.90
22966;DHT22;11649;48.090;9.754;2023-11-19T15:03:11;12.10;99.90
22966;DHT22;11649;48.090;9.754;2023-11-19T15:05:39;12.10;99.90
22966;DHT22;11649;48.090;9.754;2023-11-19T15:08:05;12.10;99.90
22966;DHT22;11649;48.090;9.754;2023-11-19T15:10:32;12.00;99.90
22966;DHT22;11649;48.090;9.754;2023-11-19T15:12:59;12.00;99.90
22966;DHT22;11649;48.090;9.754;2023-11-19T15:15:26;12.00;99.90
22966;DHT22;11649;48.090;9.754;2023-11-19T15:17:56;11.90;99.90
22966;DHT22;11649;48.090;9.754;2023-11-19T15:20:23;11.80;99.90
22966;DHT22;11649;48.090;9.754;2023-11-19T15:22:52;11.80;99.90
22966;DHT22;11649;48.090;9.754;2023-11-19T15:25:19;11.70;99.90
22966;DHT22;11649;48.090;9.754;2023-11-19T15:27:45;11.70;99.90
22966;DHT22;11649;48.090;9.754;2023-11-19T15:30:12;11.80;99.90
22966;DHT22;11649;48.090;9.754;2023-11-19T15:32:39;11.60;99.90
22966;DHT22;11649;48.090;9.754;2023-11-19T15:38:34;11.50;99.90
22966;DHT22;11649;48.090;9.754;2023-11-19T15:41:18;11.40;99.90
22966;DHT22;11649;48.090;9.754;2023-11-19T15:43:45;11.40;99.90
22966;DHT22;11649;48.090;9.754;2023-11-19T15:46:12;11.40;99.90
22966;DHT22;11649;48.090;9.754;2023-11-19T15:48:39;11.30;99.90
22966;DHT22;11649;48.090;9.754;2023-11-19T15:51:06;11.30;99.90
22966;DHT22;11649;48.090;9.754;2023-11-19T15:53:33;11.20;99.90
22966;DHT22;11649;48.090;9.754;2023-11-19T15:56:00;11.10;99.90
22966;DHT22;11649;48.090;9.754;2023-11-19T15:58:28;11.10;99.90
22966;DHT22;11649;48.090;9.754;2023-11-19T16:00:55;11.10;99.90
22966;DHT22;11649;48.090;9.754;2023-11-19T16:03:22;11.00;99.90
22966;DHT22;11649;48.090;9.754;2023-11-19T16:05:49;11.00;99.90
22966;DHT22;11649;48.090;9.754;2023-11-19T16:08:32;10.90;99.90
22966;DHT22;11649;48.090;9.754;2023-11-19T16:10:59;10.90;99.90
22966;DHT22;11649;48.090;9.754;2023-11-19T16:13:26;10.80;99.90
22966;DHT22;11649;48.090;9.754;2023-11-19T16:15:53;10.80;99.90
22966;DHT22;11649;48.090;9.754;2023-11-19T16:18:20;10.80;99.90
22966;DHT22;11649;48.090;9.754;2023-11-19T16:20:47;10.90;99.90
22966;DHT22;11649;48.090;9.754;2023-11-19T16:23:14;10.80;99.90
22966;DHT22;11649;48.090;9.754;2023-11-19T16:25:43;10.70;99.90
22966;DHT22;11649;48.090;9.754;2023-11-19T16:28:10;10.70;99.90